createdAt,value
2022-09-15T00:01:01.874Z,22.50
2022-09-15T00:03:29.626Z,23.13
2022-09-15T00:05:58.644Z,22.85
2022-09-15T00:08:26.463Z,20.90
2022-09-15T00:10:56.007Z,19.75
2022-09-15T00:13:24.078Z,21.83
2022-09-15T00:15:51.785Z,20.45
2022-09-15T00:18:19.631Z,20.77
2022-09-15T00:20:47.298Z,21.38
2022-09-15T00:23:16.898Z,21.02
2022-09-15T00:25:46.031Z,21.88
2022-09-15T00:28:14.015Z,22.25
2022-09-15T00:30:42.414Z,22.40
2022-09-15T00:33:10.234Z,22.25
2022-09-15T00:35:39.025Z,22.77
2022-09-15T00:38:07.801Z,21.67
2022-09-15T00:40:44.036Z,21.20
2022-09-15T00:43:12.112Z,22.83
2022-09-15T00:45:39.747Z,23.33
2022-09-15T00:48:07.697Z,22.40
2022-09-15T00:50:35.927Z,24.38
2022-09-15T00:53:04.893Z,25.10
2022-09-15T00:55:34.308Z,23.77
2022-09-15T00:58:04.891Z,22.77
2022-09-15T01:00:32.490Z,22.30
2022-09-15T01:03:00.489Z,22.42
2022-09-15T01:05:30.105Z,22.58
2022-09-15T01:08:00.108Z,22.90
2022-09-15T01:10:28.782Z,23.15
2022-09-15T01:12:59.086Z,25.67
2022-09-15T01:15:32.842Z,27.73
2022-09-15T01:18:06.814Z,27.40
2022-09-15T01:21:01.304Z,28.67
2022-09-15T01:23:51.679Z,25.90
2022-09-15T01:26:37.204Z,28.05
2022-09-15T01:29:21.691Z,26.17
2022-09-15T01:34:34.830Z,24.10
2022-09-15T01:37:04.139Z,22.42
2022-09-15T01:39:34.621Z,23.17
2022-09-15T01:42:03.517Z,24.17
2022-09-15T01:44:34.335Z,23.08
2022-09-15T01:47:03.364Z,23.67
2022-09-15T01:49:35.551Z,24.58
2022-09-15T01:52:03.883Z,24.25
2022-09-15T01:54:33.740Z,28.10
2022-09-15T01:57:02.731Z,28.98
2022-09-15T01:59:30.526Z,27.27
2022-09-15T02:02:00.118Z,28.92
2022-09-15T02:04:30.824Z,27.20
2022-09-15T02:07:06.450Z,22.30
2022-09-15T02:09:36.675Z,26.17
2022-09-15T02:12:07.823Z,24.35
2022-09-15T02:14:43.195Z,23.70
2022-09-15T02:17:14.532Z,24.35
2022-09-15T02:19:46.830Z,23.80
2022-09-15T02:22:23.421Z,23.00
2022-09-15T02:24:54.424Z,25.60
2022-09-15T02:27:24.179Z,26.25
2022-09-15T02:29:53.346Z,26.27
2022-09-15T02:32:23.609Z,26.20
2022-09-15T02:34:52.634Z,27.65
2022-09-15T02:37:23.014Z,22.52
2022-09-15T02:39:52.973Z,23.08
2022-09-15T02:42:24.634Z,24.15
2022-09-15T02:44:52.287Z,26.25
2022-09-15T02:47:20.192Z,23.02
2022-09-15T02:49:47.748Z,24.58
2022-09-15T02:52:15.580Z,22.27
2022-09-15T02:54:44.574Z,22.85
2022-09-15T02:57:13.927Z,22.98
2022-09-15T02:59:58.780Z,24.00
2022-09-15T03:02:26.866Z,21.95
2022-09-15T03:04:54.520Z,22.77
2022-09-15T03:07:22.179Z,23.58
2022-09-15T03:09:51.261Z,23.00
2022-09-15T03:12:18.859Z,23.92
2022-09-15T03:14:47.256Z,23.15
2022-09-15T03:17:14.875Z,24.75
2022-09-15T03:19:42.469Z,21.88
2022-09-15T03:22:10.562Z,24.38
2022-09-15T03:24:38.236Z,21.90
2022-09-15T03:27:07.370Z,22.95
2022-09-15T03:29:34.999Z,24.08
2022-09-15T03:32:03.087Z,23.10
2022-09-15T03:34:30.721Z,22.98
2022-09-15T03:36:58.386Z,23.02
2022-09-15T03:39:26.204Z,22.13
2022-09-15T03:41:54.054Z,23.05
2022-09-15T03:44:23.529Z,22.25
2022-09-15T03:46:51.289Z,20.23
2022-09-15T03:49:19.073Z,24.08
2022-09-15T03:51:48.744Z,21.10
2022-09-15T03:54:16.388Z,21.05
2022-09-15T03:56:43.997Z,21.55
2022-09-15T03:59:11.606Z,21.23
2022-09-15T04:01:40.613Z,21.02
2022-09-15T04:04:08.282Z,21.10
2022-09-15T04:06:35.938Z,20.73
2022-09-15T04:09:04.023Z,20.42
2022-09-15T04:11:31.823Z,20.52
2022-09-15T04:13:59.716Z,21.70
2022-09-15T04:16:27.785Z,23.38
2022-09-15T04:18:57.277Z,23.00
2022-09-15T04:21:25.935Z,23.00
2022-09-15T04:23:54.093Z,23.92
2022-09-15T04:26:23.000Z,22.73
2022-09-15T04:28:50.704Z,23.17
2022-09-15T04:31:18.891Z,23.45
2022-09-15T04:33:47.789Z,23.08
2022-09-15T04:36:17.838Z,23.77
2022-09-15T04:38:45.974Z,23.35
2022-09-15T04:41:14.186Z,21.15
2022-09-15T04:43:41.909Z,21.02
2022-09-15T04:46:09.623Z,21.55
2022-09-15T04:48:37.855Z,23.15
2022-09-15T04:51:06.565Z,19.88
2022-09-15T04:53:36.148Z,18.63
2022-09-15T04:56:04.773Z,21.27
2022-09-15T04:58:32.446Z,19.55
2022-09-15T05:01:00.292Z,17.58
2022-09-15T05:03:27.921Z,19.20
2022-09-15T05:05:55.550Z,19.52
2022-09-15T05:08:23.212Z,19.35
2022-09-15T05:10:52.192Z,19.13
2022-09-15T05:13:19.920Z,17.25
2022-09-15T05:15:47.622Z,16.40
2022-09-15T05:18:15.295Z,19.38
2022-09-15T05:20:42.946Z,18.23
2022-09-15T05:23:10.708Z,16.63
2022-09-15T05:25:38.818Z,16.52
2022-09-15T05:28:07.835Z,15.65
2022-09-15T05:30:44.088Z,16.30
2022-09-15T05:33:12.120Z,16.63
2022-09-15T05:35:39.879Z,14.93
2022-09-15T05:38:07.472Z,16.55
2022-09-15T05:40:35.082Z,15.93
2022-09-15T05:43:02.873Z,16.40
2022-09-15T05:45:32.013Z,15.73
2022-09-15T05:47:59.725Z,15.40
2022-09-15T05:50:27.354Z,14.32
2022-09-15T05:52:55.022Z,16.00
2022-09-15T05:55:22.748Z,15.00
2022-09-15T05:57:50.469Z,15.07
2022-09-15T06:00:20.121Z,17.77
2022-09-15T06:02:49.413Z,16.48
2022-09-15T06:05:17.171Z,16.65
2022-09-15T06:07:44.805Z,16.02
2022-09-15T06:10:12.663Z,14.98
2022-09-15T06:12:43.021Z,16.23
2022-09-15T06:15:12.646Z,15.90
2022-09-15T06:17:41.228Z,15.55
2022-09-15T06:20:10.999Z,15.98
2022-09-15T06:22:43.991Z,15.85
2022-09-15T06:25:13.323Z,14.35
2022-09-15T06:27:41.217Z,13.45
2022-09-15T06:30:09.916Z,13.07
2022-09-15T06:32:37.933Z,15.02
2022-09-15T06:35:07.128Z,13.05
2022-09-15T06:37:36.245Z,12.88
2022-09-15T06:40:04.434Z,11.93
2022-09-15T06:42:32.081Z,12.52
2022-09-15T06:44:59.756Z,12.80
2022-09-15T06:47:34.105Z,12.40
2022-09-15T06:50:02.370Z,13.18
2022-09-15T06:52:30.062Z,14.70
2022-09-15T06:54:59.138Z,17.08
2022-09-15T06:57:26.741Z,17.63
2022-09-15T06:59:57.289Z,16.17
2022-09-15T07:02:24.994Z,14.02
2022-09-15T07:04:53.127Z,14.15
2022-09-15T07:07:20.878Z,14.07
2022-09-15T07:09:49.203Z,12.90
2022-09-15T07:12:18.337Z,11.90
2022-09-15T07:14:46.096Z,12.25
2022-09-15T07:17:13.737Z,14.05
2022-09-15T07:19:43.202Z,13.52
2022-09-15T07:22:12.107Z,12.40
2022-09-15T07:24:39.703Z,12.63
2022-09-15T07:27:08.363Z,12.18
2022-09-15T07:29:38.369Z,11.95
2022-09-15T07:32:07.544Z,12.15
2022-09-15T07:34:35.149Z,11.07
2022-09-15T07:37:02.931Z,12.10
2022-09-15T07:39:31.188Z,14.65
2022-09-15T07:42:00.988Z,11.73
2022-09-15T07:44:28.619Z,11.93
2022-09-15T07:46:57.614Z,12.88
2022-09-15T07:49:25.354Z,13.00
2022-09-15T07:51:53.463Z,12.77
2022-09-15T07:54:22.991Z,11.55
2022-09-15T07:56:51.455Z,13.65
2022-09-15T07:59:19.069Z,11.98
2022-09-15T08:01:46.887Z,12.18
2022-09-15T08:04:16.340Z,11.90
2022-09-15T08:06:43.978Z,13.55
2022-09-15T08:09:14.806Z,12.63
2022-09-15T08:11:43.138Z,12.25
2022-09-15T08:14:11.050Z,12.15
2022-09-15T08:16:39.647Z,11.77
2022-09-15T08:19:07.809Z,11.43
2022-09-15T08:21:36.753Z,12.55
2022-09-15T08:24:04.445Z,11.07
2022-09-15T08:26:32.083Z,12.80
2022-09-15T08:29:00.719Z,13.50
2022-09-15T08:31:36.072Z,12.38
2022-09-15T08:34:06.935Z,12.77
2022-09-15T08:36:35.975Z,13.32
2022-09-15T08:39:06.825Z,13.25
2022-09-15T08:41:36.236Z,12.45
2022-09-15T08:44:05.734Z,13.70
2022-09-15T08:46:36.518Z,12.40
2022-09-15T08:49:06.500Z,12.85
2022-09-15T08:51:41.745Z,12.60
2022-09-15T08:54:12.893Z,11.68
2022-09-15T08:56:44.496Z,13.13
2022-09-15T08:59:14.772Z,10.38
2022-09-15T09:01:53.029Z,12.90
2022-09-15T09:04:30.393Z,13.45
2022-09-15T09:07:05.204Z,11.70
2022-09-15T09:09:36.087Z,11.60
2022-09-15T09:12:13.601Z,11.45
2022-09-15T09:14:49.202Z,11.57
2022-09-15T09:17:23.733Z,11.70
2022-09-15T09:20:05.335Z,12.80
2022-09-15T09:22:35.856Z,12.40
2022-09-15T09:25:21.128Z,11.35
2022-09-15T09:27:52.169Z,12.63
2022-09-15T09:30:21.363Z,9.77
2022-09-15T09:32:55.070Z,10.57
2022-09-15T09:35:25.939Z,10.40
2022-09-15T09:37:55.422Z,10.13
2022-09-15T09:40:23.752Z,9.05
2022-09-15T09:42:51.420Z,9.50
2022-09-15T09:45:20.122Z,9.13
2022-09-15T09:47:49.203Z,8.43
2022-09-15T09:50:35.028Z,7.93
2022-09-15T09:53:18.415Z,8.65
2022-09-15T09:55:47.107Z,8.02
2022-09-15T09:58:16.005Z,7.72
2022-09-15T10:00:43.664Z,9.23
2022-09-15T10:03:12.393Z,7.65
2022-09-15T10:05:42.413Z,9.18
2022-09-15T10:08:17.983Z,7.70
2022-09-15T10:10:51.482Z,8.10
2022-09-15T10:13:19.293Z,8.20
2022-09-15T10:15:54.778Z,7.05
2022-09-15T10:18:30.514Z,9.00
2022-09-15T10:20:58.712Z,8.07
2022-09-15T10:23:28.923Z,6.88
2022-09-15T10:26:00.127Z,7.53
2022-09-15T10:28:28.510Z,7.18
2022-09-15T10:31:01.578Z,7.13
2022-09-15T10:33:30.301Z,6.03
2022-09-15T10:36:02.591Z,6.10
2022-09-15T10:38:33.950Z,6.13
2022-09-15T10:41:04.725Z,5.85
2022-09-15T10:43:40.493Z,5.85
2022-09-15T10:46:11.568Z,5.72
2022-09-15T10:48:47.801Z,5.90
2022-09-15T10:51:24.105Z,5.80
2022-09-15T10:54:05.530Z,5.88
2022-09-15T10:56:35.238Z,5.15
2022-09-15T10:59:21.871Z,6.30
2022-09-15T11:02:02.015Z,5.63
2022-09-15T11:04:44.652Z,6.70
2022-09-15T11:07:26.442Z,6.85
2022-09-15T11:09:58.932Z,5.85
2022-09-15T11:12:38.303Z,5.68
2022-09-15T11:15:19.024Z,5.63
2022-09-15T11:17:56.243Z,6.97
2022-09-15T11:20:35.952Z,5.82
2022-09-15T11:23:05.994Z,5.38
2022-09-15T11:25:36.660Z,4.85
2022-09-15T11:28:07.597Z,4.82
2022-09-15T11:30:38.123Z,4.82
2022-09-15T11:33:08.371Z,4.63
2022-09-15T11:35:39.837Z,4.93
2022-09-15T11:38:22.851Z,5.13
2022-09-15T11:41:01.766Z,5.40
2022-09-15T11:43:33.603Z,5.50
2022-09-15T11:46:02.215Z,4.75
2022-09-15T11:48:38.758Z,5.40
2022-09-15T11:51:08.335Z,4.63
2022-09-15T11:53:39.305Z,5.38
2022-09-15T11:56:14.548Z,5.18
2022-09-15T11:58:50.806Z,5.15
2022-09-15T12:01:21.454Z,4.88
2022-09-15T12:03:50.698Z,5.18
2022-09-15T12:06:19.831Z,4.85
2022-09-15T12:08:51.899Z,5.03
2022-09-15T12:11:23.480Z,5.53
2022-09-15T12:13:57.110Z,4.80
2022-09-15T12:16:25.362Z,5.40
2022-09-15T12:18:55.010Z,4.90
2022-09-15T12:21:34.278Z,6.90
2022-09-15T12:24:04.918Z,5.25
2022-09-15T12:26:36.052Z,4.68
2022-09-15T12:29:46.862Z,5.82
2022-09-15T12:32:22.913Z,6.82
2022-09-15T12:34:58.476Z,7.80
2022-09-15T12:37:29.501Z,6.72
2022-09-15T12:40:00.332Z,6.72
2022-09-15T12:42:31.937Z,5.75
2022-09-15T12:45:01.873Z,6.22
2022-09-15T12:47:31.908Z,6.25
2022-09-15T12:50:02.180Z,5.60
2022-09-15T12:52:32.670Z,6.15
2022-09-15T12:55:01.968Z,6.10
2022-09-15T12:57:33.251Z,5.82
2022-09-15T13:00:19.669Z,6.25
2022-09-15T13:02:48.484Z,6.25
2022-09-15T13:05:50.836Z,5.60
2022-09-15T13:08:33.454Z,6.40
2022-09-15T13:11:02.131Z,5.63
2022-09-15T13:13:35.255Z,5.47
2022-09-15T13:16:03.388Z,5.55
2022-09-15T13:18:31.966Z,6.00
2022-09-15T13:21:01.564Z,5.65
2022-09-15T13:23:29.946Z,6.50
2022-09-15T13:26:08.950Z,5.05
2022-09-15T13:28:38.623Z,5.55
2022-09-15T13:31:11.150Z,5.00
2022-09-15T13:40:05.369Z,5.60
2022-09-15T13:43:09.359Z,5.20
2022-09-15T13:46:00.280Z,5.00
2022-09-15T13:51:50.308Z,5.10
2022-09-15T14:00:48.323Z,6.18
2022-09-15T14:03:22.735Z,6.35
2022-09-15T14:05:51.960Z,7.40
2022-09-15T14:08:22.066Z,6.55
2022-09-15T14:10:52.988Z,7.50
2022-09-15T14:13:21.700Z,6.25
2022-09-15T14:15:59.850Z,7.25
2022-09-15T14:22:02.195Z,6.65
2022-09-15T14:24:30.777Z,7.45
2022-09-15T14:27:00.147Z,7.65
2022-09-15T14:29:30.261Z,7.38
2022-09-15T14:34:45.836Z,7.22
2022-09-15T14:37:19.889Z,7.47
2022-09-15T14:39:56.765Z,7.00
2022-09-15T14:42:30.815Z,8.02
2022-09-15T14:48:40.735Z,17.42
2022-09-15T14:51:35.573Z,8.70
2022-09-15T14:54:05.653Z,9.35
2022-09-15T14:56:35.639Z,8.95
2022-09-15T14:59:06.866Z,8.00
2022-09-15T15:05:12.177Z,9.68
2022-09-15T15:07:43.674Z,10.40
2022-09-15T15:14:10.195Z,9.77
2022-09-15T15:16:41.704Z,9.35
2022-09-15T15:19:31.553Z,10.00
2022-09-15T15:22:12.294Z,9.77
2022-09-15T15:24:41.970Z,10.18
2022-09-15T15:27:34.423Z,11.73
2022-09-15T15:30:16.995Z,10.32
2022-09-15T15:32:46.166Z,11.20
2022-09-15T15:35:15.352Z,12.30
2022-09-15T15:37:43.157Z,11.35
2022-09-15T15:40:17.351Z,11.85
2022-09-15T15:45:22.487Z,12.07
2022-09-15T15:47:52.986Z,12.18
2022-09-15T15:50:22.185Z,13.05
2022-09-15T15:52:50.912Z,12.70
2022-09-15T15:55:19.372Z,13.57
2022-09-15T15:57:48.897Z,12.50
2022-09-15T16:00:22.178Z,14.30
2022-09-15T16:02:52.273Z,15.60
2022-09-15T16:05:20.672Z,13.55
2022-09-15T16:07:49.050Z,14.43
2022-09-15T16:10:17.594Z,14.70
2022-09-15T16:12:45.797Z,14.13
2022-09-15T16:15:15.445Z,15.27
2022-09-15T16:17:46.071Z,14.88
2022-09-15T16:20:16.972Z,14.20
2022-09-15T16:22:44.905Z,14.63
2022-09-15T16:25:15.562Z,15.07
2022-09-15T16:27:43.332Z,15.60
2022-09-15T16:30:12.443Z,14.48
2022-09-15T16:32:40.764Z,15.65
2022-09-15T16:35:19.287Z,15.75
2022-09-15T16:37:46.947Z,15.50
2022-09-15T16:40:14.790Z,16.15
2022-09-15T16:42:42.538Z,17.27
2022-09-15T16:45:20.804Z,16.42
2022-09-15T16:47:48.791Z,17.77
2022-09-15T16:50:18.194Z,16.67
2022-09-15T16:52:45.901Z,17.25
2022-09-15T16:55:33.172Z,17.20
2022-09-15T16:58:01.157Z,17.40
2022-09-15T17:00:29.269Z,17.10
2022-09-15T17:02:57.489Z,22.05
2022-09-15T17:05:28.980Z,18.65
2022-09-15T17:07:56.641Z,19.40
2022-09-15T17:10:24.476Z,21.33
2022-09-15T17:12:53.332Z,20.98
2022-09-15T17:15:23.104Z,20.17
2022-09-15T17:17:50.869Z,19.80
2022-09-15T17:20:19.335Z,19.85
2022-09-15T17:22:51.193Z,18.52
2022-09-15T17:25:25.174Z,18.95
2022-09-15T17:27:53.237Z,20.35
2022-09-15T17:30:22.072Z,19.50
2022-09-15T17:32:50.202Z,20.85
2022-09-15T17:35:21.614Z,20.45
2022-09-15T17:37:50.793Z,18.92
2022-09-15T17:40:19.639Z,18.83
2022-09-15T17:42:47.722Z,17.73
2022-09-15T17:45:17.408Z,19.65
2022-09-15T17:47:45.180Z,19.67
2022-09-15T17:50:13.566Z,18.63
2022-09-15T17:52:41.581Z,18.45
2022-09-15T17:55:18.467Z,20.10
2022-09-15T17:57:46.412Z,19.40
2022-09-15T18:00:14.869Z,20.95
2022-09-15T18:02:44.190Z,20.70
2022-09-15T18:05:18.737Z,18.80
2022-09-15T18:07:47.063Z,20.58
2022-09-15T18:10:14.859Z,18.10
2022-09-15T18:12:47.377Z,18.70
2022-09-15T18:15:17.782Z,19.42
2022-09-15T18:17:45.755Z,18.88
2022-09-15T18:20:15.041Z,21.05
2022-09-15T18:22:44.602Z,19.80
2022-09-15T18:25:16.335Z,19.35
2022-09-15T18:27:46.474Z,20.48
2022-09-15T18:30:14.694Z,18.45
2022-09-15T18:32:43.764Z,19.45
2022-09-15T18:35:16.367Z,19.63
2022-09-15T18:37:46.369Z,19.63
2022-09-15T18:40:15.260Z,17.83
2022-09-15T18:42:43.338Z,18.65
2022-09-15T18:45:14.323Z,19.52
2022-09-15T18:47:42.604Z,19.38
2022-09-15T18:50:12.359Z,18.77
2022-09-15T18:52:40.851Z,18.65
2022-09-15T18:55:12.767Z,21.30
2022-09-15T18:57:41.679Z,19.58
2022-09-15T19:00:10.678Z,20.52
2022-09-15T19:02:40.106Z,20.58
2022-09-15T19:05:12.557Z,20.35
2022-09-15T19:07:40.425Z,30.42
2022-09-15T19:10:11.830Z,22.75
2022-09-15T19:12:40.134Z,28.23
2022-09-15T19:15:12.146Z,21.77
2022-09-15T19:17:41.672Z,21.65
2022-09-15T19:20:10.664Z,19.60
2022-09-15T19:22:38.855Z,19.67
2022-09-15T19:25:07.817Z,21.50
2022-09-15T19:27:35.778Z,19.55
2022-09-15T19:30:04.160Z,20.92
2022-09-15T19:32:46.627Z,20.40
2022-09-15T19:35:17.167Z,20.25
2022-09-15T19:37:49.712Z,20.48
2022-09-15T19:40:18.009Z,18.60
2022-09-15T19:42:50.911Z,24.48
2022-09-15T19:45:21.396Z,19.17
2022-09-15T19:47:58.917Z,18.05
2022-09-15T19:50:31.302Z,18.38
2022-09-15T19:53:05.152Z,18.00
2022-09-15T19:55:38.273Z,16.52
2022-09-15T19:58:26.300Z,16.80
2022-09-15T20:00:58.718Z,16.10
2022-09-15T20:03:28.480Z,17.05
2022-09-15T20:05:58.731Z,15.80
2022-09-15T20:08:27.604Z,16.10
2022-09-15T20:10:55.525Z,17.08
2022-09-15T20:13:23.495Z,17.42
2022-09-15T20:15:58.118Z,15.15
2022-09-15T20:18:28.430Z,17.50
2022-09-15T20:20:58.797Z,16.60
2022-09-15T20:23:29.038Z,18.40
2022-09-15T20:26:02.303Z,17.77
2022-09-15T20:28:30.662Z,16.70
2022-09-15T20:31:02.469Z,16.35
2022-09-15T20:33:32.373Z,17.67
2022-09-15T20:36:01.966Z,17.02
2022-09-15T20:38:29.815Z,16.30
2022-09-15T20:40:57.702Z,15.45
2022-09-15T20:43:25.520Z,13.98
2022-09-15T20:45:56.849Z,15.70
2022-09-15T20:48:24.840Z,12.75
2022-09-15T20:51:00.608Z,13.77
2022-09-15T20:53:28.483Z,12.48
2022-09-15T20:56:00.382Z,10.93
2022-09-15T20:58:28.472Z,10.30
2022-09-15T21:01:03.565Z,10.32
2022-09-15T21:03:31.343Z,9.60
2022-09-15T21:06:04.873Z,9.02
2022-09-15T21:08:33.164Z,8.68
2022-09-15T21:11:05.325Z,9.05
2022-09-15T21:13:35.695Z,9.10
2022-09-15T21:16:03.665Z,9.18
2022-09-15T21:18:32.820Z,8.80
2022-09-15T21:21:01.444Z,9.18
2022-09-15T21:23:34.882Z,7.93
2022-09-15T21:26:03.667Z,8.00
2022-09-15T21:28:31.546Z,8.13
2022-09-15T21:31:02.338Z,7.70
2022-09-15T21:33:32.808Z,7.40
2022-09-15T21:36:05.138Z,7.47
2022-09-15T21:38:34.386Z,7.03
2022-09-15T21:41:04.544Z,7.18
2022-09-15T21:43:34.776Z,6.80
2022-09-15T21:46:05.458Z,6.47
2022-09-15T21:48:36.590Z,7.68
2022-09-15T21:51:05.139Z,5.68
2022-09-15T21:53:35.002Z,5.07
2022-09-15T21:56:03.315Z,5.53
2022-09-15T21:58:38.947Z,4.78
2022-09-15T22:01:10.827Z,5.30
2022-09-15T22:03:41.852Z,5.32
2022-09-15T22:06:09.898Z,4.68
2022-09-15T22:08:39.273Z,5.53
2022-09-15T22:11:07.705Z,5.07
2022-09-15T22:13:36.405Z,4.78
2022-09-15T22:16:04.497Z,4.63
2022-09-15T22:18:33.869Z,4.07
2022-09-15T22:21:05.157Z,4.70
2022-09-15T22:23:33.016Z,4.88
2022-09-15T22:26:03.153Z,4.43
2022-09-15T22:28:31.319Z,4.53
2022-09-15T22:31:01.025Z,4.22
2022-09-15T22:33:29.142Z,4.60
2022-09-15T22:35:58.854Z,4.53
2022-09-15T22:38:27.828Z,4.28
2022-09-15T22:40:55.582Z,3.85
2022-09-15T22:43:27.272Z,4.18
2022-09-15T22:45:56.866Z,4.47
2022-09-15T22:48:26.831Z,4.03
2022-09-15T22:50:54.491Z,3.92
2022-09-15T22:53:23.493Z,4.72
2022-09-15T22:55:51.399Z,3.55
2022-09-15T22:58:19.103Z,3.85
2022-09-15T23:00:50.620Z,3.63
2022-09-15T23:03:18.330Z,3.85
2022-09-15T23:05:45.965Z,3.97
2022-09-15T23:08:14.664Z,3.22
2022-09-15T23:10:42.250Z,4.03
2022-09-15T23:13:10.027Z,3.72
2022-09-15T23:15:37.908Z,3.45
2022-09-15T23:18:06.958Z,3.78
2022-09-15T23:20:34.560Z,3.30
2022-09-15T23:23:02.172Z,3.60
2022-09-15T23:25:29.792Z,3.50
2022-09-15T23:27:57.448Z,3.25
2022-09-15T23:30:25.138Z,3.50
2022-09-15T23:32:52.731Z,2.97
2022-09-15T23:35:21.707Z,3.35
2022-09-15T23:37:49.334Z,3.72
2022-09-15T23:40:17.081Z,3.60
2022-09-15T23:42:44.711Z,3.60
2022-09-15T23:45:12.828Z,3.58
2022-09-15T23:47:40.457Z,4.28
2022-09-15T23:50:08.436Z,4.20
2022-09-15T23:52:37.577Z,4.70
2022-09-15T23:55:05.596Z,4.97
2022-09-15T23:57:33.177Z,5.30
